sensor_id;sensor_type;location;lat;lon;timestamp;pressure;altitude;pressure_sealevel;temperature;humidity
54872;BME280;43914;57.680;11.982;2023-03-03T00:02:03;101310.48;;;0.93;100.00
54872;BME280;43914;57.680;11.982;2023-03-03T00:04:28;101302.40;;;0.88;100.00
54872;BME280;43914;57.680;11.982;2023-03-03T00:06:54;101297.59;;;0.83;100.00
54872;BME280;43914;57.680;11.982;2023-03-03T00:09:19;101293.44;;;0.80;100.00
54872;BME280;43914;57.680;11.982;2023-03-03T00:11:47;101295.95;;;0.81;100.00
54872;BME280;43914;57.680;11.982;2023-03-03T00:14:29;101298.56;;;0.84;100.00
54872;BME280;43914;57.680;11.982;2023-03-03T00:16:56;101296.98;;;0.82;100.00
54872;BME280;43914;57.680;11.982;2023-03-03T00:19:22;101286.80;;;0.79;100.00
54872;BME280;43914;57.680;11.982;2023-03-03T00:21:49;101282.47;;;0.80;100.00
54872;BME280;43914;57.680;11.982;2023-03-03T00:26:49;101280.20;;;0.90;100.00
54872;BME280;43914;57.680;11.982;2023-03-03T00:29:45;101272.11;;;0.94;100.00
54872;BME280;43914;57.680;11.982;2023-03-03T00:34:36;101284.27;;;0.97;100.00
54872;BME280;43914;57.680;11.982;2023-03-03T00:37:02;101285.90;;;0.92;100.00
54872;BME280;43914;57.680;11.982;2023-03-03T00:39:30;101292.71;;;0.90;100.00
54872;BME280;43914;57.680;11.982;2023-03-03T00:41:58;101295.25;;;0.84;100.00
54872;BME280;43914;57.680;11.982;2023-03-03T00:46:59;101294.71;;;0.63;100.00
54872;BME280;43914;57.680;11.982;2023-03-03T00:49:27;101295.38;;;0.54;100.00
54872;BME280;43914;57.680;11.982;2023-03-03T00:51:53;101292.23;;;0.48;100.00
54872;BME280;43914;57.680;11.982;2023-03-03T00:54:18;101297.27;;;0.44;100.00
54872;BME280;43914;57.680;11.982;2023-03-03T00:56:44;101296.77;;;0.41;100.00
54872;BME280;43914;57.680;11.982;2023-03-03T00:59:10;101305.09;;;0.43;100.00
54872;BME280;43914;57.680;11.982;2023-03-03T01:01:36;101313.85;;;0.36;100.00
54872;BME280;43914;57.680;11.982;2023-03-03T01:04:01;101317.39;;;0.28;100.00
54872;BME280;43914;57.680;11.982;2023-03-03T01:06:27;101318.07;;;0.25;100.00
54872;BME280;43914;57.680;11.982;2023-03-03T01:08:53;101314.21;;;0.25;100.00
54872;BME280;43914;57.680;11.982;2023-03-03T01:11:25;101316.39;;;0.21;100.00
54872;BME280;43914;57.680;11.982;2023-03-03T01:13:53;101321.61;;;0.22;100.00
54872;BME280;43914;57.680;11.982;2023-03-03T01:16:19;101317.64;;;0.21;100.00
54872;BME280;43914;57.680;11.982;2023-03-03T01:18:46;101315.15;;;0.19;100.00
54872;BME280;43914;57.680;11.982;2023-03-03T01:21:12;101312.87;;;0.16;100.00
54872;BME280;43914;57.680;11.982;2023-03-03T01:23:38;101303.84;;;0.11;100.00
54872;BME280;43914;57.680;11.982;2023-03-03T01:26:04;101303.05;;;0.07;100.00
54872;BME280;43914;57.680;11.982;2023-03-03T01:28:31;101300.04;;;0.05;100.00
54872;BME280;43914;57.680;11.982;2023-03-03T01:31:04;101294.67;;;0.01;100.00
54872;BME280;43914;57.680;11.982;2023-03-03T01:33:31;101288.06;;;-0.01;100.00
54872;BME280;43914;57.680;11.982;2023-03-03T01:35:57;101286.25;;;0.00;100.00
54872;BME280;43914;57.680;11.982;2023-03-03T01:38:23;101285.02;;;0.00;100.00
54872;BME280;43914;57.680;11.982;2023-03-03T01:40:53;101290.09;;;0.01;100.00
54872;BME280;43914;57.680;11.982;2023-03-03T01:43:19;101303.31;;;0.03;100.00
54872;BME280;43914;57.680;11.982;2023-03-03T01:48:15;101302.92;;;-0.18;100.00
54872;BME280;43914;57.680;11.982;2023-03-03T01:51:00;101300.14;;;-0.21;100.00
54872;BME280;43914;57.680;11.982;2023-03-03T01:53:35;101296.38;;;-0.26;100.00
54872;BME280;43914;57.680;11.982;2023-03-03T01:56:03;101292.92;;;-0.29;100.00
54872;BME280;43914;57.680;11.982;2023-03-03T01:58:34;101291.16;;;-0.30;100.00
54872;BME280;43914;57.680;11.982;2023-03-03T02:01:09;101288.27;;;-0.28;100.00
54872;BME280;43914;57.680;11.982;2023-03-03T02:03:38;101289.40;;;-0.30;100.00
54872;BME280;43914;57.680;11.982;2023-03-03T02:06:07;101288.70;;;-0.32;100.00
54872;BME280;43914;57.680;11.982;2023-03-03T02:08:39;101289.27;;;-0.33;100.00
54872;BME280;43914;57.680;11.982;2023-03-03T02:11:08;101285.30;;;-0.37;100.00
54872;BME280;43914;57.680;11.982;2023-03-03T02:13:34;101281.09;;;-0.37;100.00
54872;BME280;43914;57.680;11.982;2023-03-03T02:16:00;101284.09;;;-0.37;100.00
54872;BME280;43914;57.680;11.982;2023-03-03T02:18:26;101287.05;;;-0.37;100.00
54872;BME280;43914;57.680;11.982;2023-03-03T02:20:57;101292.20;;;-0.37;100.00
54872;BME280;43914;57.680;11.982;2023-03-03T02:28:25;101297.66;;;-0.49;100.00
54872;BME280;43914;57.680;11.982;2023-03-03T02:30:54;101304.51;;;-0.56;100.00
54872;BME280;43914;57.680;11.982;2023-03-03T02:33:19;101302.09;;;-0.63;100.00
54872;BME280;43914;57.680;11.982;2023-03-03T02:35:45;101307.58;;;-0.66;100.00
54872;BME280;43914;57.680;11.982;2023-03-03T02:41:16;101305.73;;;-0.70;100.00
54872;BME280;43914;57.680;11.982;2023-03-03T02:43:46;101296.86;;;-0.75;100.00
54872;BME280;43914;57.680;11.982;2023-03-03T02:46:15;101300.98;;;-0.73;100.00
54872;BME280;43914;57.680;11.982;2023-03-03T02:48:41;101304.23;;;-0.72;100.00
54872;BME280;43914;57.680;11.982;2023-03-03T02:51:06;101298.03;;;-0.74;100.00
54872;BME280;43914;57.680;11.982;2023-03-03T02:53:32;101289.02;;;-0.76;100.00
54872;BME280;43914;57.680;11.982;2023-03-03T02:55:58;101284.20;;;-0.75;100.00
54872;BME280;43914;57.680;11.982;2023-03-03T02:58:24;101281.81;;;-0.71;100.00
54872;BME280;43914;57.680;11.982;2023-03-03T03:00:49;101283.55;;;-0.65;100.00
54872;BME280;43914;57.680;11.982;2023-03-03T03:03:14;101284.93;;;-0.67;100.00
54872;BME280;43914;57.680;11.982;2023-03-03T03:05:40;101287.73;;;-0.67;100.00
54872;BME280;43914;57.680;11.982;2023-03-03T03:08:06;101279.33;;;-0.68;100.00
54872;BME280;43914;57.680;11.982;2023-03-03T03:10:31;101279.33;;;-0.65;100.00
54872;BME280;43914;57.680;11.982;2023-03-03T03:12:57;101287.20;;;-0.64;100.00
54872;BME280;43914;57.680;11.982;2023-03-03T03:15:22;101285.66;;;-0.67;100.00
54872;BME280;43914;57.680;11.982;2023-03-03T03:17:47;101290.39;;;-0.70;100.00
54872;BME280;43914;57.680;11.982;2023-03-03T03:20:14;101286.66;;;-0.69;100.00
54872;BME280;43914;57.680;11.982;2023-03-03T03:22:39;101283.15;;;-0.72;100.00
54872;BME280;43914;57.680;11.982;2023-03-03T03:25:05;101285.21;;;-0.77;100.00
54872;BME280;43914;57.680;11.982;2023-03-03T03:27:31;101286.17;;;-0.81;100.00
54872;BME280;43914;57.680;11.982;2023-03-03T03:29:56;101277.88;;;-0.81;100.00
54872;BME280;43914;57.680;11.982;2023-03-03T03:32:22;101271.02;;;-0.78;100.00
54872;BME280;43914;57.680;11.982;2023-03-03T03:34:48;101273.13;;;-0.72;100.00
54872;BME280;43914;57.680;11.982;2023-03-03T03:37:13;101268.65;;;-0.66;100.00
54872;BME280;43914;57.680;11.982;2023-03-03T03:39:39;101260.16;;;-0.65;100.00
54872;BME280;43914;57.680;11.982;2023-03-03T03:42:05;101260.67;;;-0.65;100.00
54872;BME280;43914;57.680;11.982;2023-03-03T03:44:30;101260.23;;;-0.66;100.00
54872;BME280;43914;57.680;11.982;2023-03-03T03:46:56;101260.98;;;-0.67;100.00
54872;BME280;43914;57.680;11.982;2023-03-03T03:49:21;101260.08;;;-0.69;100.00
54872;BME280;43914;57.680;11.982;2023-03-03T03:51:47;101259.19;;;-0.72;100.00
54872;BME280;43914;57.680;11.982;2023-03-03T03:54:12;101259.98;;;-0.76;100.00
54872;BME280;43914;57.680;11.982;2023-03-03T03:56:38;101247.84;;;-0.82;100.00
54872;BME280;43914;57.680;11.982;2023-03-03T03:59:05;101253.93;;;-0.83;100.00
54872;BME280;43914;57.680;11.982;2023-03-03T04:01:31;101249.05;;;-0.87;100.00
54872;BME280;43914;57.680;11.982;2023-03-03T04:03:57;101244.08;;;-0.90;100.00
54872;BME280;43914;57.680;11.982;2023-03-03T04:06:22;101248.30;;;-0.92;100.00
54872;BME280;43914;57.680;11.982;2023-03-03T04:08:48;101247.44;;;-0.95;100.00
54872;BME280;43914;57.680;11.982;2023-03-03T04:11:13;101248.02;;;-0.96;100.00
54872;BME280;43914;57.680;11.982;2023-03-03T04:13:39;101250.96;;;-0.95;100.00
54872;BME280;43914;57.680;11.982;2023-03-03T04:16:05;101253.59;;;-0.98;100.00
54872;BME280;43914;57.680;11.982;2023-03-03T04:18:30;101251.98;;;-1.00;100.00
54872;BME280;43914;57.680;11.982;2023-03-03T04:20:55;101249.58;;;-0.98;100.00
54872;BME280;43914;57.680;11.982;2023-03-03T04:23:21;101250.80;;;-0.95;100.00
54872;BME280;43914;57.680;11.982;2023-03-03T04:25:47;101250.09;;;-0.90;100.00
54872;BME280;43914;57.680;11.982;2023-03-03T04:28:16;101250.95;;;-0.90;100.00
54872;BME280;43914;57.680;11.982;2023-03-03T04:30:43;101244.05;;;-0.94;100.00
54872;BME280;43914;57.680;11.982;2023-03-03T04:33:08;101246.71;;;-0.98;100.00
54872;BME280;43914;57.680;11.982;2023-03-03T04:35:34;101247.41;;;-1.00;100.00
54872;BME280;43914;57.680;11.982;2023-03-03T04:37:59;101230.20;;;-1.12;100.00
54872;BME280;43914;57.680;11.982;2023-03-03T04:40:25;101245.70;;;-1.04;100.00
54872;BME280;43914;57.680;11.982;2023-03-03T04:42:51;101245.63;;;-1.05;100.00
54872;BME280;43914;57.680;11.982;2023-03-03T04:45:16;101244.86;;;-1.04;100.00
54872;BME280;43914;57.680;11.982;2023-03-03T04:47:42;101246.77;;;-1.06;100.00
54872;BME280;43914;57.680;11.982;2023-03-03T04:50:09;101246.66;;;-1.08;100.00
54872;BME280;43914;57.680;11.982;2023-03-03T04:52:34;101247.78;;;-1.09;100.00
54872;BME280;43914;57.680;11.982;2023-03-03T04:55:00;101244.84;;;-1.10;100.00
54872;BME280;43914;57.680;11.982;2023-03-03T04:57:25;101234.27;;;-1.13;100.00
54872;BME280;43914;57.680;11.982;2023-03-03T04:59:51;101230.15;;;-1.14;100.00
54872;BME280;43914;57.680;11.982;2023-03-03T05:02:16;101226.34;;;-1.15;100.00
54872;BME280;43914;57.680;11.982;2023-03-03T05:04:42;101220.62;;;-1.17;100.00
54872;BME280;43914;57.680;11.982;2023-03-03T05:07:07;101220.69;;;-1.15;100.00
54872;BME280;43914;57.680;11.982;2023-03-03T05:09:34;101216.00;;;-1.07;100.00
54872;BME280;43914;57.680;11.982;2023-03-03T05:12:00;101209.66;;;-0.99;100.00
54872;BME280;43914;57.680;11.982;2023-03-03T05:14:26;101213.65;;;-0.95;100.00
54872;BME280;43914;57.680;11.982;2023-03-03T05:16:52;101205.16;;;-1.00;100.00
54872;BME280;43914;57.680;11.982;2023-03-03T05:19:18;101204.89;;;-1.01;100.00
54872;BME280;43914;57.680;11.982;2023-03-03T05:21:43;101206.27;;;-1.01;100.00
54872;BME280;43914;57.680;11.982;2023-03-03T05:24:12;101204.33;;;-1.00;100.00
54872;BME280;43914;57.680;11.982;2023-03-03T05:26:39;101206.92;;;-1.03;100.00
54872;BME280;43914;57.680;11.982;2023-03-03T05:29:05;101207.20;;;-1.07;100.00
54872;BME280;43914;57.680;11.982;2023-03-03T05:31:31;101204.25;;;-1.10;100.00
54872;BME280;43914;57.680;11.982;2023-03-03T05:33:56;101202.77;;;-1.12;100.00
54872;BME280;43914;57.680;11.982;2023-03-03T05:36:21;101203.67;;;-1.13;100.00
54872;BME280;43914;57.680;11.982;2023-03-03T05:38:47;101206.23;;;-1.11;100.00
54872;BME280;43914;57.680;11.982;2023-03-03T05:41:12;101199.98;;;-1.13;100.00
54872;BME280;43914;57.680;11.982;2023-03-03T05:43:39;101198.39;;;-1.12;100.00
54872;BME280;43914;57.680;11.982;2023-03-03T05:46:04;101196.05;;;-1.12;100.00
54872;BME280;43914;57.680;11.982;2023-03-03T05:48:30;101194.33;;;-1.07;100.00
54872;BME280;43914;57.680;11.982;2023-03-03T05:50:59;101195.52;;;-1.00;100.00
54872;BME280;43914;57.680;11.982;2023-03-03T05:53:27;101195.18;;;-0.95;100.00
54872;BME280;43914;57.680;11.982;2023-03-03T05:55:54;101196.65;;;-0.96;100.00
54872;BME280;43914;57.680;11.982;2023-03-03T05:58:20;101193.45;;;-0.98;100.00
54872;BME280;43914;57.680;11.982;2023-03-03T06:00:45;101198.14;;;-1.00;100.00
54872;BME280;43914;57.680;11.982;2023-03-03T06:03:11;101199.86;;;-1.05;100.00
54872;BME280;43914;57.680;11.982;2023-03-03T06:05:39;101206.52;;;-1.10;100.00
54872;BME280;43914;57.680;11.982;2023-03-03T06:08:05;101202.80;;;-1.07;100.00
54872;BME280;43914;57.680;11.982;2023-03-03T06:10:30;101202.48;;;-1.05;100.00
54872;BME280;43914;57.680;11.982;2023-03-03T06:12:56;101203.33;;;-1.04;100.00
54872;BME280;43914;57.680;11.982;2023-03-03T06:15:23;101204.27;;;-1.05;100.00
54872;BME280;43914;57.680;11.982;2023-03-03T06:17:49;101201.16;;;-1.03;100.00
54872;BME280;43914;57.680;11.982;2023-03-03T06:20:14;101196.08;;;-0.98;100.00
54872;BME280;43914;57.680;11.982;2023-03-03T06:22:40;101193.70;;;-0.91;100.00
54872;BME280;43914;57.680;11.982;2023-03-03T06:25:06;101194.10;;;-0.89;100.00
54872;BME280;43914;57.680;11.982;2023-03-03T06:27:33;101190.92;;;-0.94;100.00
54872;BME280;43914;57.680;11.982;2023-03-03T06:29:59;101188.65;;;-0.97;100.00
54872;BME280;43914;57.680;11.982;2023-03-03T06:32:25;101181.13;;;-0.98;100.00
54872;BME280;43914;57.680;11.982;2023-03-03T06:34:51;101179.70;;;-0.97;100.00
54872;BME280;43914;57.680;11.982;2023-03-03T06:37:18;101179.02;;;-0.98;100.00
54872;BME280;43914;57.680;11.982;2023-03-03T06:39:43;101175.42;;;-0.99;100.00
54872;BME280;43914;57.680;11.982;2023-03-03T06:42:09;101178.85;;;-0.98;100.00
54872;BME280;43914;57.680;11.982;2023-03-03T06:44:35;101177.82;;;-0.96;100.00
54872;BME280;43914;57.680;11.982;2023-03-03T06:47:00;101175.69;;;-0.93;100.00
54872;BME280;43914;57.680;11.982;2023-03-03T06:49:26;101176.17;;;-0.89;100.00
54872;BME280;43914;57.680;11.982;2023-03-03T06:51:51;101173.45;;;-0.85;100.00
54872;BME280;43914;57.680;11.982;2023-03-03T06:54:19;101171.79;;;-0.78;100.00
54872;BME280;43914;57.680;11.982;2023-03-03T06:56:46;101169.54;;;-0.73;100.00
54872;BME280;43914;57.680;11.982;2023-03-03T06:59:17;101168.10;;;-0.67;100.00
54872;BME280;43914;57.680;11.982;2023-03-03T07:01:44;101166.46;;;-0.64;100.00
54872;BME280;43914;57.680;11.982;2023-03-03T07:04:26;101171.83;;;-0.57;100.00
54872;BME280;43914;57.680;11.982;2023-03-03T07:06:57;101169.10;;;-0.50;100.00
54872;BME280;43914;57.680;11.982;2023-03-03T07:09:26;101173.55;;;-0.38;100.00
54872;BME280;43914;57.680;11.982;2023-03-03T07:12:12;101175.04;;;-0.23;100.00
54872;BME280;43914;57.680;11.982;2023-03-03T07:14:42;101176.79;;;-0.12;100.00
54872;BME280;43914;57.680;11.982;2023-03-03T07:17:18;101172.84;;;-0.08;100.00
54872;BME280;43914;57.680;11.982;2023-03-03T07:19:45;101170.95;;;-0.09;100.00
54872;BME280;43914;57.680;11.982;2023-03-03T07:22:23;101174.73;;;-0.08;100.00
54872;BME280;43914;57.680;11.982;2023-03-03T07:24:51;101171.58;;;-0.08;100.00
54872;BME280;43914;57.680;11.982;2023-03-03T07:29:46;101166.77;;;-0.02;100.00
54872;BME280;43914;57.680;11.982;2023-03-03T07:32:39;101166.63;;;0.08;100.00
54872;BME280;43914;57.680;11.982;2023-03-03T07:35:41;101162.51;;;0.30;100.00
54872;BME280;43914;57.680;11.982;2023-03-03T07:38:36;101163.42;;;0.47;100.00
54872;BME280;43914;57.680;11.982;2023-03-03T07:41:04;101160.98;;;0.62;100.00
54872;BME280;43914;57.680;11.982;2023-03-03T07:46:25;101157.91;;;0.83;100.00
54872;BME280;43914;57.680;11.982;2023-03-03T07:48:52;101157.30;;;0.74;100.00
54872;BME280;43914;57.680;11.982;2023-03-03T07:51:52;101158.10;;;0.73;100.00
54872;BME280;43914;57.680;11.982;2023-03-03T07:54:38;101149.40;;;0.74;100.00
54872;BME280;43914;57.680;11.982;2023-03-03T08:00:03;101143.21;;;1.08;100.00
54872;BME280;43914;57.680;11.982;2023-03-03T08:02:39;101136.96;;;1.26;100.00
54872;BME280;43914;57.680;11.982;2023-03-03T08:07:49;101129.79;;;1.49;100.00
54872;BME280;43914;57.680;11.982;2023-03-03T08:10:34;101128.20;;;1.37;100.00
54872;BME280;43914;57.680;11.982;2023-03-03T08:13:07;101123.91;;;1.33;100.00
54872;BME280;43914;57.680;11.982;2023-03-03T08:15:36;101119.77;;;1.39;100.00
54872;BME280;43914;57.680;11.982;2023-03-03T08:18:17;101114.56;;;1.50;100.00
54872;BME280;43914;57.680;11.982;2023-03-03T08:20:51;101115.39;;;1.67;100.00
54872;BME280;43914;57.680;11.982;2023-03-03T08:23:19;101116.01;;;1.80;100.00
54872;BME280;43914;57.680;11.982;2023-03-03T08:25:46;101107.83;;;1.90;100.00
54872;BME280;43914;57.680;11.982;2023-03-03T08:28:13;101108.38;;;2.01;100.00
54872;BME280;43914;57.680;11.982;2023-03-03T08:30:38;101105.75;;;2.12;100.00
54872;BME280;43914;57.680;11.982;2023-03-03T08:33:04;101100.23;;;2.22;100.00
54872;BME280;43914;57.680;11.982;2023-03-03T08:35:29;101099.63;;;2.29;100.00
54872;BME280;43914;57.680;11.982;2023-03-03T08:37:55;101098.91;;;2.37;100.00
54872;BME280;43914;57.680;11.982;2023-03-03T08:40:21;101095.17;;;2.43;100.00
54872;BME280;43914;57.680;11.982;2023-03-03T08:42:46;101094.62;;;2.51;100.00
54872;BME280;43914;57.680;11.982;2023-03-03T08:45:13;101086.25;;;2.58;100.00
54872;BME280;43914;57.680;11.982;2023-03-03T08:47:38;101081.76;;;2.66;100.00
54872;BME280;43914;57.680;11.982;2023-03-03T08:50:05;101083.55;;;2.74;100.00
54872;BME280;43914;57.680;11.982;2023-03-03T08:52:31;101083.31;;;2.82;100.00
54872;BME280;43914;57.680;11.982;2023-03-03T08:54:56;101081.27;;;2.87;100.00
54872;BME280;43914;57.680;11.982;2023-03-03T08:57:22;101076.40;;;2.93;100.00
54872;BME280;43914;57.680;11.982;2023-03-03T08:59:47;101079.21;;;2.95;100.00
54872;BME280;43914;57.680;11.982;2023-03-03T09:02:33;101077.06;;;2.91;100.00
54872;BME280;43914;57.680;11.982;2023-03-03T09:04:59;101069.69;;;2.86;100.00
54872;BME280;43914;57.680;11.982;2023-03-03T09:07:25;101061.36;;;2.84;100.00
54872;BME280;43914;57.680;11.982;2023-03-03T09:09:50;101056.89;;;2.89;100.00
54872;BME280;43914;57.680;11.982;2023-03-03T09:12:26;101054.63;;;2.93;100.00
54872;BME280;43914;57.680;11.982;2023-03-03T09:14:57;101051.80;;;2.99;100.00
54872;BME280;43914;57.680;11.982;2023-03-03T09:17:33;101041.42;;;3.07;100.00
54872;BME280;43914;57.680;11.982;2023-03-03T09:20:14;101036.61;;;3.16;100.00
54872;BME280;43914;57.680;11.982;2023-03-03T09:22:43;101025.02;;;3.21;100.00
54872;BME280;43914;57.680;11.982;2023-03-03T09:25:32;101034.45;;;3.38;100.00
54872;BME280;43914;57.680;11.982;2023-03-03T09:27:59;101040.55;;;3.47;100.00
54872;BME280;43914;57.680;11.982;2023-03-03T09:30:37;101037.89;;;3.56;100.00
54872;BME280;43914;57.680;11.982;2023-03-03T09:33:23;101023.83;;;3.65;100.00
54872;BME280;43914;57.680;11.982;2023-03-03T09:36:03;101021.25;;;3.77;100.00
54872;BME280;43914;57.680;11.982;2023-03-03T09:38:32;101020.35;;;3.87;100.00
54872;BME280;43914;57.680;11.982;2023-03-03T09:49:01;101011.11;;;4.16;96.10
54872;BME280;43914;57.680;11.982;2023-03-03T09:51:44;101009.00;;;4.22;94.79
54872;BME280;43914;57.680;11.982;2023-03-03T10:13:43;100984.46;;;4.76;85.99
54872;BME280;43914;57.680;11.982;2023-03-03T10:19:00;100973.34;;;4.91;86.77
54872;BME280;43914;57.680;11.982;2023-03-03T10:21:48;100969.15;;;4.99;86.32
54872;BME280;43914;57.680;11.982;2023-03-03T10:24:28;100967.05;;;5.02;84.64
54872;BME280;43914;57.680;11.982;2023-03-03T10:29:54;100973.45;;;5.10;82.65
54872;BME280;43914;57.680;11.982;2023-03-03T10:33:00;100967.59;;;5.10;82.82
54872;BME280;43914;57.680;11.982;2023-03-03T10:35:32;100966.12;;;5.12;83.32
54872;BME280;43914;57.680;11.982;2023-03-03T11:00:22;100933.66;;;5.00;87.69
54872;BME280;43914;57.680;11.982;2023-03-03T11:06:08;100917.13;;;5.04;88.02
54872;BME280;43914;57.680;11.982;2023-03-03T11:25:02;100881.20;;;4.99;90.14
54872;BME280;43914;57.680;11.982;2023-03-03T11:33:03;100868.30;;;5.06;89.93
54872;BME280;43914;57.680;11.982;2023-03-03T11:40:58;100857.27;;;5.10;89.75
54872;BME280;43914;57.680;11.982;2023-03-03T11:43:52;100857.70;;;5.13;90.11
54872;BME280;43914;57.680;11.982;2023-03-03T11:46:24;100850.43;;;5.16;89.95
54872;BME280;43914;57.680;11.982;2023-03-03T11:48:57;100845.11;;;5.20;89.92
54872;BME280;43914;57.680;11.982;2023-03-03T11:51:35;100840.81;;;5.23;89.54
54872;BME280;43914;57.680;11.982;2023-03-03T11:54:21;100830.39;;;5.26;89.77
54872;BME280;43914;57.680;11.982;2023-03-03T11:56:56;100824.51;;;5.29;90.17
54872;BME280;43914;57.680;11.982;2023-03-03T12:02:38;100819.09;;;5.32;90.35
54872;BME280;43914;57.680;11.982;2023-03-03T12:10:40;100795.17;;;5.42;90.20
54872;BME280;43914;57.680;11.982;2023-03-03T12:15:50;100788.30;;;5.49;90.42
54872;BME280;43914;57.680;11.982;2023-03-03T12:24:22;100774.72;;;5.61;90.07
54872;BME280;43914;57.680;11.982;2023-03-03T12:27:15;100769.02;;;5.65;89.89
54872;BME280;43914;57.680;11.982;2023-03-03T12:37:59;100733.62;;;5.82;87.71
54872;BME280;43914;57.680;11.982;2023-03-03T12:40:41;100721.64;;;5.84;86.92
54872;BME280;43914;57.680;11.982;2023-03-03T12:48:42;100696.33;;;5.97;85.16
54872;BME280;43914;57.680;11.982;2023-03-03T12:57:08;100671.50;;;6.09;83.38
54872;BME280;43914;57.680;11.982;2023-03-03T13:05:28;100660.77;;;6.27;81.42
54872;BME280;43914;57.680;11.982;2023-03-03T13:10:42;100649.15;;;6.40;80.07
54872;BME280;43914;57.680;11.982;2023-03-03T13:21:03;100631.92;;;6.77;78.52
54872;BME280;43914;57.680;11.982;2023-03-03T13:29:08;100635.05;;;6.97;77.24
54872;BME280;43914;57.680;11.982;2023-03-03T13:31:51;100627.83;;;7.06;77.01
54872;BME280;43914;57.680;11.982;2023-03-03T13:37:21;100626.86;;;7.12;74.86
54872;BME280;43914;57.680;11.982;2023-03-03T13:40:25;100632.97;;;7.12;74.58
54872;BME280;43914;57.680;11.982;2023-03-03T13:51:01;100596.02;;;6.94;71.77
54872;BME280;43914;57.680;11.982;2023-03-03T13:59:26;100554.08;;;6.81;72.57
54872;BME280;43914;57.680;11.982;2023-03-03T14:07:18;100528.02;;;6.65;71.25
54872;BME280;43914;57.680;11.982;2023-03-03T14:09:56;100523.42;;;6.63;71.06
54872;BME280;43914;57.680;11.982;2023-03-03T14:15:27;100529.08;;;6.60;70.94
54872;BME280;43914;57.680;11.982;2023-03-03T14:20:52;100530.39;;;6.68;71.20
54872;BME280;43914;57.680;11.982;2023-03-03T14:23:58;100523.02;;;6.68;71.13
54872;BME280;43914;57.680;11.982;2023-03-03T14:26:25;100512.14;;;6.70;70.71
54872;BME280;43914;57.680;11.982;2023-03-03T14:29:03;100507.14;;;6.70;70.64
54872;BME280;43914;57.680;11.982;2023-03-03T14:31:40;100506.30;;;6.70;69.83
54872;BME280;43914;57.680;11.982;2023-03-03T14:36:39;100476.04;;;6.68;69.58
54872;BME280;43914;57.680;11.982;2023-03-03T14:39:29;100475.02;;;6.69;70.43
54872;BME280;43914;57.680;11.982;2023-03-03T14:41:56;100458.50;;;6.72;70.47
54872;BME280;43914;57.680;11.982;2023-03-03T14:44:29;100464.54;;;6.69;70.66
54872;BME280;43914;57.680;11.982;2023-03-03T14:47:22;100469.81;;;6.67;71.65
54872;BME280;43914;57.680;11.982;2023-03-03T14:49:49;100468.80;;;6.64;72.17
54872;BME280;43914;57.680;11.982;2023-03-03T14:54:44;100457.95;;;6.62;72.85
54872;BME280;43914;57.680;11.982;2023-03-03T14:57:22;100457.72;;;6.61;72.84
54872;BME280;43914;57.680;11.982;2023-03-03T15:05:17;100441.92;;;6.51;71.66
54872;BME280;43914;57.680;11.982;2023-03-03T15:07:46;100431.67;;;6.42;70.37
54872;BME280;43914;57.680;11.982;2023-03-03T15:12:53;100441.61;;;6.28;70.78
54872;BME280;43914;57.680;11.982;2023-03-03T15:15:21;100435.96;;;6.23;71.23
54872;BME280;43914;57.680;11.982;2023-03-03T15:20:40;100442.73;;;6.13;72.69
54872;BME280;43914;57.680;11.982;2023-03-03T15:34:01;100418.47;;;6.12;74.65
54872;BME280;43914;57.680;11.982;2023-03-03T15:39:56;100415.30;;;6.10;74.26
54872;BME280;43914;57.680;11.982;2023-03-03T15:42:12;100410.03;;;6.11;74.65
54872;BME280;43914;57.680;11.982;2023-03-03T15:47:31;100408.86;;;6.15;74.39
54872;BME280;43914;57.680;11.982;2023-03-03T15:50:16;100396.80;;;6.13;73.91
54872;BME280;43914;57.680;11.982;2023-03-03T15:58:35;100386.38;;;6.11;74.56
54872;BME280;43914;57.680;11.982;2023-03-03T16:01:26;100372.73;;;6.12;73.95
54872;BME280;43914;57.680;11.982;2023-03-03T16:04:17;100377.95;;;6.13;73.69
54872;BME280;43914;57.680;11.982;2023-03-03T16:07:22;100377.08;;;6.13;73.54
54872;BME280;43914;57.680;11.982;2023-03-03T16:10:02;100374.69;;;6.12;72.74
54872;BME280;43914;57.680;11.982;2023-03-03T16:15:10;100374.78;;;6.11;71.86
54872;BME280;43914;57.680;11.982;2023-03-03T16:21:06;100373.81;;;5.98;67.64
54872;BME280;43914;57.680;11.982;2023-03-03T16:23:50;100382.70;;;5.93;68.25
54872;BME280;43914;57.680;11.982;2023-03-03T16:28:53;100379.00;;;5.79;68.34
54872;BME280;43914;57.680;11.982;2023-03-03T16:39:47;100369.98;;;5.51;68.31
54872;BME280;43914;57.680;11.982;2023-03-03T16:42:28;100369.34;;;5.45;68.64
54872;BME280;43914;57.680;11.982;2023-03-03T16:45:04;100370.28;;;5.39;69.26
54872;BME280;43914;57.680;11.982;2023-03-03T16:53:09;100350.80;;;5.27;69.96
54872;BME280;43914;57.680;11.982;2023-03-03T16:58:29;100349.55;;;5.20;69.30
54872;BME280;43914;57.680;11.982;2023-03-03T17:04:31;100342.55;;;5.14;69.96
54872;BME280;43914;57.680;11.982;2023-03-03T17:06:42;100347.23;;;5.12;70.24
54872;BME280;43914;57.680;11.982;2023-03-03T17:14:50;100348.60;;;5.00;70.38
54872;BME280;43914;57.680;11.982;2023-03-03T17:19:54;100354.56;;;4.95;70.61
54872;BME280;43914;57.680;11.982;2023-03-03T17:22:53;100351.63;;;4.93;70.48
54872;BME280;43914;57.680;11.982;2023-03-03T17:25:30;100351.77;;;4.89;69.96
54872;BME280;43914;57.680;11.982;2023-03-03T17:47:05;100342.88;;;4.84;65.48
54872;BME280;43914;57.680;11.982;2023-03-03T18:07:25;100328.64;;;5.08;62.48
54872;BME280;43914;57.680;11.982;2023-03-03T18:13:02;100332.48;;;5.08;61.89